sensor_id;sensor_type;location;lat;lon;timestamp;temperature;humidity
72936;DHT22;61085;48.804;9.228;2022-11-13T00:00:03;6.30;99.90
72936;DHT22;61085;48.804;9.228;2022-11-13T00:02:32;6.00;99.90
72936;DHT22;61085;48.804;9.228;2022-11-13T00:04:58;6.00;99.90
72936;DHT22;61085;48.804;9.228;2022-11-13T00:07:23;6.00;99.90
72936;DHT22;61085;48.804;9.228;2022-11-13T00:09:49;6.00;99.90
72936;DHT22;61085;48.804;9.228;2022-11-13T00:12:15;5.80;99.90
72936;DHT22;61085;48.804;9.228;2022-11-13T00:14:40;5.60;99.90
72936;DHT22;61085;48.804;9.228;2022-11-13T00:17:06;5.60;99.90
72936;DHT22;61085;48.804;9.228;2022-11-13T00:19:31;5.60;99.90
72936;DHT22;61085;48.804;9.228;2022-11-13T00:21:57;5.50;99.90
72936;DHT22;61085;48.804;9.228;2022-11-13T00:24:24;5.60;99.90
72936;DHT22;61085;48.804;9.228;2022-11-13T00:26:49;5.60;99.90
72936;DHT22;61085;48.804;9.228;2022-11-13T00:29:15;5.60;99.90
72936;DHT22;61085;48.804;9.228;2022-11-13T00:31:41;5.60;99.90
72936;DHT22;61085;48.804;9.228;2022-11-13T00:34:07;5.60;99.90
72936;DHT22;61085;48.804;9.228;2022-11-13T00:36:33;5.70;99.90
72936;DHT22;61085;48.804;9.228;2022-11-13T00:38:58;5.70;99.90
72936;DHT22;61085;48.804;9.228;2022-11-13T00:41:24;5.70;99.90
72936;DHT22;61085;48.804;9.228;2022-11-13T00:43:50;5.70;99.90
72936;DHT22;61085;48.804;9.228;2022-11-13T00:46:16;5.70;99.90
72936;DHT22;61085;48.804;9.228;2022-11-13T00:48:42;5.70;99.90
72936;DHT22;61085;48.804;9.228;2022-11-13T00:51:08;5.80;99.90
72936;DHT22;61085;48.804;9.228;2022-11-13T00:53:33;5.80;99.90
72936;DHT22;61085;48.804;9.228;2022-11-13T00:55:59;5.80;99.90
72936;DHT22;61085;48.804;9.228;2022-11-13T00:58:25;6.00;99.90
72936;DHT22;61085;48.804;9.228;2022-11-13T01:00:51;5.90;99.90
72936;DHT22;61085;48.804;9.228;2022-11-13T01:03:17;6.00;99.90
72936;DHT22;61085;48.804;9.228;2022-11-13T01:05:45;5.90;99.90
72936;DHT22;61085;48.804;9.228;2022-11-13T01:08:12;6.00;99.90
72936;DHT22;61085;48.804;9.228;2022-11-13T01:10:42;5.90;99.90
72936;DHT22;61085;48.804;9.228;2022-11-13T01:13:07;5.60;99.90
72936;DHT22;61085;48.804;9.228;2022-11-13T01:15:33;5.40;99.90
72936;DHT22;61085;48.804;9.228;2022-11-13T01:17:59;5.40;99.90
72936;DHT22;61085;48.804;9.228;2022-11-13T01:20:25;5.40;99.90
72936;DHT22;61085;48.804;9.228;2022-11-13T01:22:50;5.30;99.90
72936;DHT22;61085;48.804;9.228;2022-11-13T01:25:17;5.20;99.90
72936;DHT22;61085;48.804;9.228;2022-11-13T01:27:42;5.20;99.90
72936;DHT22;61085;48.804;9.228;2022-11-13T01:30:08;5.20;99.90
72936;DHT22;61085;48.804;9.228;2022-11-13T01:32:34;5.30;99.90
72936;DHT22;61085;48.804;9.228;2022-11-13T01:35:00;5.20;99.90
72936;DHT22;61085;48.804;9.228;2022-11-13T01:37:26;5.20;99.90
72936;DHT22;61085;48.804;9.228;2022-11-13T01:39:52;5.30;99.90
72936;DHT22;61085;48.804;9.228;2022-11-13T01:42:18;5.20;99.90
72936;DHT22;61085;48.804;9.228;2022-11-13T01:44:58;5.20;99.90
72936;DHT22;61085;48.804;9.228;2022-11-13T01:47:25;5.10;99.90
72936;DHT22;61085;48.804;9.228;2022-11-13T01:49:54;5.10;99.90
72936;DHT22;61085;48.804;9.228;2022-11-13T01:52:29;5.10;99.90
72936;DHT22;61085;48.804;9.228;2022-11-13T01:55:03;5.20;99.90
72936;DHT22;61085;48.804;9.228;2022-11-13T01:57:29;5.20;99.90
72936;DHT22;61085;48.804;9.228;2022-11-13T02:00:03;5.20;99.90
72936;DHT22;61085;48.804;9.228;2022-11-13T02:02:29;5.10;99.90
72936;DHT22;61085;48.804;9.228;2022-11-13T02:04:55;5.10;99.90
72936;DHT22;61085;48.804;9.228;2022-11-13T02:07:21;5.20;99.90
72936;DHT22;61085;48.804;9.228;2022-11-13T02:09:49;5.10;99.90
72936;DHT22;61085;48.804;9.228;2022-11-13T02:12:35;5.10;99.90
72936;DHT22;61085;48.804;9.228;2022-11-13T02:15:03;5.10;99.90
72936;DHT22;61085;48.804;9.228;2022-11-13T02:17:42;5.20;99.90
72936;DHT22;61085;48.804;9.228;2022-11-13T02:20:09;5.30;99.90
72936;DHT22;61085;48.804;9.228;2022-11-13T02:22:45;5.40;99.90
72936;DHT22;61085;48.804;9.228;2022-11-13T02:25:13;5.40;99.90
72936;DHT22;61085;48.804;9.228;2022-11-13T02:27:43;5.30;99.90
72936;DHT22;61085;48.804;9.228;2022-11-13T02:30:21;5.30;99.90
72936;DHT22;61085;48.804;9.228;2022-11-13T02:32:49;5.40;99.90
72936;DHT22;61085;48.804;9.228;2022-11-13T02:35:19;5.30;99.90
72936;DHT22;61085;48.804;9.228;2022-11-13T02:37:45;5.30;99.90
72936;DHT22;61085;48.804;9.228;2022-11-13T02:40:11;5.40;99.90
72936;DHT22;61085;48.804;9.228;2022-11-13T02:42:36;5.40;99.90
72936;DHT22;61085;48.804;9.228;2022-11-13T02:45:03;5.50;99.90
72936;DHT22;61085;48.804;9.228;2022-11-13T02:47:29;5.40;99.90
72936;DHT22;61085;48.804;9.228;2022-11-13T02:49:54;5.40;99.90
72936;DHT22;61085;48.804;9.228;2022-11-13T02:52:20;5.40;99.90
72936;DHT22;61085;48.804;9.228;2022-11-13T02:54:45;5.30;99.90
72936;DHT22;61085;48.804;9.228;2022-11-13T02:57:11;5.20;99.90
72936;DHT22;61085;48.804;9.228;2022-11-13T02:59:36;5.10;99.90
72936;DHT22;61085;48.804;9.228;2022-11-13T03:02:02;5.00;99.90
72936;DHT22;61085;48.804;9.228;2022-11-13T03:04:28;5.00;99.90
72936;DHT22;61085;48.804;9.228;2022-11-13T03:06:53;5.10;99.90
72936;DHT22;61085;48.804;9.228;2022-11-13T03:09:19;5.00;99.90
72936;DHT22;61085;48.804;9.228;2022-11-13T03:11:44;4.90;99.90
72936;DHT22;61085;48.804;9.228;2022-11-13T03:14:10;4.90;99.90
72936;DHT22;61085;48.804;9.228;2022-11-13T03:16:36;4.80;99.90
72936;DHT22;61085;48.804;9.228;2022-11-13T03:19:02;4.80;99.90
72936;DHT22;61085;48.804;9.228;2022-11-13T03:21:29;4.60;99.90
72936;DHT22;61085;48.804;9.228;2022-11-13T03:23:55;4.50;99.90
72936;DHT22;61085;48.804;9.228;2022-11-13T03:26:20;4.40;99.90
72936;DHT22;61085;48.804;9.228;2022-11-13T03:28:46;4.20;99.90
72936;DHT22;61085;48.804;9.228;2022-11-13T03:31:12;4.40;99.90
72936;DHT22;61085;48.804;9.228;2022-11-13T03:33:38;4.40;99.90
72936;DHT22;61085;48.804;9.228;2022-11-13T03:36:04;4.50;99.90
72936;DHT22;61085;48.804;9.228;2022-11-13T03:38:30;4.60;99.90
72936;DHT22;61085;48.804;9.228;2022-11-13T03:40:56;4.60;99.90
72936;DHT22;61085;48.804;9.228;2022-11-13T03:43:21;4.50;99.90
72936;DHT22;61085;48.804;9.228;2022-11-13T03:45:47;4.40;99.90
72936;DHT22;61085;48.804;9.228;2022-11-13T03:48:14;4.40;99.90
72936;DHT22;61085;48.804;9.228;2022-11-13T03:50:45;4.30;99.90
72936;DHT22;61085;48.804;9.228;2022-11-13T03:53:11;4.40;99.90
72936;DHT22;61085;48.804;9.228;2022-11-13T03:55:37;4.50;99.90
72936;DHT22;61085;48.804;9.228;2022-11-13T03:58:03;4.50;99.90
72936;DHT22;61085;48.804;9.228;2022-11-13T04:00:28;4.50;99.90
72936;DHT22;61085;48.804;9.228;2022-11-13T04:02:54;4.50;99.90
72936;DHT22;61085;48.804;9.228;2022-11-13T04:05:20;4.50;99.90
72936;DHT22;61085;48.804;9.228;2022-11-13T04:07:46;4.50;99.90
72936;DHT22;61085;48.804;9.228;2022-11-13T04:10:12;4.50;99.90
72936;DHT22;61085;48.804;9.228;2022-11-13T04:12:38;4.60;99.90
72936;DHT22;61085;48.804;9.228;2022-11-13T04:15:04;4.60;99.90
72936;DHT22;61085;48.804;9.228;2022-11-13T04:17:30;4.50;99.90
72936;DHT22;61085;48.804;9.228;2022-11-13T04:19:55;4.60;99.90
72936;DHT22;61085;48.804;9.228;2022-11-13T04:22:21;4.50;99.90
72936;DHT22;61085;48.804;9.228;2022-11-13T04:24:46;4.60;99.90
72936;DHT22;61085;48.804;9.228;2022-11-13T04:27:12;4.50;99.90
72936;DHT22;61085;48.804;9.228;2022-11-13T04:29:38;4.50;99.90
72936;DHT22;61085;48.804;9.228;2022-11-13T04:32:03;4.50;99.90
72936;DHT22;61085;48.804;9.228;2022-11-13T04:34:29;4.50;99.90
72936;DHT22;61085;48.804;9.228;2022-11-13T04:36:55;4.40;99.90
72936;DHT22;61085;48.804;9.228;2022-11-13T04:39:20;4.40;99.90
72936;DHT22;61085;48.804;9.228;2022-11-13T04:41:46;4.60;99.90
72936;DHT22;61085;48.804;9.228;2022-11-13T04:44:30;4.70;99.90
72936;DHT22;61085;48.804;9.228;2022-11-13T04:46:55;4.80;99.90
72936;DHT22;61085;48.804;9.228;2022-11-13T04:49:21;4.80;99.90
72936;DHT22;61085;48.804;9.228;2022-11-13T04:51:47;4.80;99.90
72936;DHT22;61085;48.804;9.228;2022-11-13T04:54:12;4.90;99.90
72936;DHT22;61085;48.804;9.228;2022-11-13T04:56:38;4.90;99.90
72936;DHT22;61085;48.804;9.228;2022-11-13T04:59:03;4.90;99.90
72936;DHT22;61085;48.804;9.228;2022-11-13T05:01:29;4.70;99.90
72936;DHT22;61085;48.804;9.228;2022-11-13T05:03:54;4.90;99.90
72936;DHT22;61085;48.804;9.228;2022-11-13T05:06:20;4.90;99.90
72936;DHT22;61085;48.804;9.228;2022-11-13T05:08:46;5.10;99.90
72936;DHT22;61085;48.804;9.228;2022-11-13T05:11:12;5.20;99.90
72936;DHT22;61085;48.804;9.228;2022-11-13T05:13:37;5.20;99.90
72936;DHT22;61085;48.804;9.228;2022-11-13T05:16:06;5.10;99.90
72936;DHT22;61085;48.804;9.228;2022-11-13T05:18:32;5.10;99.90
72936;DHT22;61085;48.804;9.228;2022-11-13T05:20:58;5.10;99.90
72936;DHT22;61085;48.804;9.228;2022-11-13T05:23:24;5.20;99.90
72936;DHT22;61085;48.804;9.228;2022-11-13T05:25:50;5.20;99.90
72936;DHT22;61085;48.804;9.228;2022-11-13T05:28:16;5.00;99.90
72936;DHT22;61085;48.804;9.228;2022-11-13T05:30:41;5.50;99.90
72936;DHT22;61085;48.804;9.228;2022-11-13T05:33:07;5.10;99.90
72936;DHT22;61085;48.804;9.228;2022-11-13T05:35:33;5.00;99.90
72936;DHT22;61085;48.804;9.228;2022-11-13T05:38:02;5.00;99.90
72936;DHT22;61085;48.804;9.228;2022-11-13T05:40:28;4.90;99.90
72936;DHT22;61085;48.804;9.228;2022-11-13T05:42:54;5.00;99.90
72936;DHT22;61085;48.804;9.228;2022-11-13T05:45:20;5.00;99.90
72936;DHT22;61085;48.804;9.228;2022-11-13T05:47:46;5.10;99.90
72936;DHT22;61085;48.804;9.228;2022-11-13T05:50:12;5.10;99.90
72936;DHT22;61085;48.804;9.228;2022-11-13T05:52:37;5.10;99.90
72936;DHT22;61085;48.804;9.228;2022-11-13T05:55:03;5.00;99.90
72936;DHT22;61085;48.804;9.228;2022-11-13T05:57:29;5.10;99.90
72936;DHT22;61085;48.804;9.228;2022-11-13T05:59:55;5.20;99.90
72936;DHT22;61085;48.804;9.228;2022-11-13T06:02:20;5.10;99.90
72936;DHT22;61085;48.804;9.228;2022-11-13T06:04:47;5.20;99.90
72936;DHT22;61085;48.804;9.228;2022-11-13T06:07:13;5.40;99.90
72936;DHT22;61085;48.804;9.228;2022-11-13T06:09:39;5.40;99.90
72936;DHT22;61085;48.804;9.228;2022-11-13T06:12:04;5.50;99.90
72936;DHT22;61085;48.804;9.228;2022-11-13T06:14:30;5.40;99.90
72936;DHT22;61085;48.804;9.228;2022-11-13T06:16:56;5.20;99.90
72936;DHT22;61085;48.804;9.228;2022-11-13T06:19:22;5.10;99.90
72936;DHT22;61085;48.804;9.228;2022-11-13T06:21:47;5.10;99.90
72936;DHT22;61085;48.804;9.228;2022-11-13T06:24:13;5.10;99.90
72936;DHT22;61085;48.804;9.228;2022-11-13T06:26:39;5.20;99.90
72936;DHT22;61085;48.804;9.228;2022-11-13T06:29:07;5.00;99.90
72936;DHT22;61085;48.804;9.228;2022-11-13T06:31:34;5.00;99.90
72936;DHT22;61085;48.804;9.228;2022-11-13T06:34:01;5.00;99.90
72936;DHT22;61085;48.804;9.228;2022-11-13T06:36:32;4.90;99.90
72936;DHT22;61085;48.804;9.228;2022-11-13T06:38:58;4.80;99.90
72936;DHT22;61085;48.804;9.228;2022-11-13T06:41:29;4.60;99.90
72936;DHT22;61085;48.804;9.228;2022-11-13T06:43:57;4.40;99.90
72936;DHT22;61085;48.804;9.228;2022-11-13T06:46:26;4.10;99.90
72936;DHT22;61085;48.804;9.228;2022-11-13T06:48:52;4.10;99.90
72936;DHT22;61085;48.804;9.228;2022-11-13T06:51:22;3.80;99.90
72936;DHT22;61085;48.804;9.228;2022-11-13T06:53:48;3.80;99.90
72936;DHT22;61085;48.804;9.228;2022-11-13T06:56:15;4.00;99.90
72936;DHT22;61085;48.804;9.228;2022-11-13T06:58:41;3.70;99.90
72936;DHT22;61085;48.804;9.228;2022-11-13T07:01:22;4.00;99.90
72936;DHT22;61085;48.804;9.228;2022-11-13T07:03:48;4.00;99.90
72936;DHT22;61085;48.804;9.228;2022-11-13T07:06:19;4.00;99.90
72936;DHT22;61085;48.804;9.228;2022-11-13T07:08:46;3.80;99.90
72936;DHT22;61085;48.804;9.228;2022-11-13T07:11:15;3.80;99.90
72936;DHT22;61085;48.804;9.228;2022-11-13T07:13:41;3.60;99.90
72936;DHT22;61085;48.804;9.228;2022-11-13T07:16:08;3.40;99.90
72936;DHT22;61085;48.804;9.228;2022-11-13T07:18:34;3.40;99.90
72936;DHT22;61085;48.804;9.228;2022-11-13T07:21:08;3.10;99.90
72936;DHT22;61085;48.804;9.228;2022-11-13T07:23:35;3.10;99.90
72936;DHT22;61085;48.804;9.228;2022-11-13T07:26:08;3.30;99.90
72936;DHT22;61085;48.804;9.228;2022-11-13T07:28:34;3.60;99.90
72936;DHT22;61085;48.804;9.228;2022-11-13T07:31:00;3.80;99.90
72936;DHT22;61085;48.804;9.228;2022-11-13T07:33:26;4.00;99.90
72936;DHT22;61085;48.804;9.228;2022-11-13T07:35:58;4.20;99.90
72936;DHT22;61085;48.804;9.228;2022-11-13T07:38:23;4.30;99.90
72936;DHT22;61085;48.804;9.228;2022-11-13T07:40:49;4.40;99.90
72936;DHT22;61085;48.804;9.228;2022-11-13T07:43:15;4.50;99.90
72936;DHT22;61085;48.804;9.228;2022-11-13T07:45:41;4.60;99.90
72936;DHT22;61085;48.804;9.228;2022-11-13T07:48:06;4.60;99.90
72936;DHT22;61085;48.804;9.228;2022-11-13T07:50:34;4.60;99.90
72936;DHT22;61085;48.804;9.228;2022-11-13T07:53:02;4.70;99.90
72936;DHT22;61085;48.804;9.228;2022-11-13T07:55:28;4.60;99.90
72936;DHT22;61085;48.804;9.228;2022-11-13T07:57:58;4.30;99.90
72936;DHT22;61085;48.804;9.228;2022-11-13T08:00:25;4.30;99.90
72936;DHT22;61085;48.804;9.228;2022-11-13T08:02:51;4.40;99.90
72936;DHT22;61085;48.804;9.228;2022-11-13T08:05:17;4.50;99.90
72936;DHT22;61085;48.804;9.228;2022-11-13T08:07:54;4.50;99.90
72936;DHT22;61085;48.804;9.228;2022-11-13T08:10:20;4.50;99.90
72936;DHT22;61085;48.804;9.228;2022-11-13T08:12:46;4.50;99.90
72936;DHT22;61085;48.804;9.228;2022-11-13T08:15:12;4.50;99.90
72936;DHT22;61085;48.804;9.228;2022-11-13T08:17:38;4.50;99.90
72936;DHT22;61085;48.804;9.228;2022-11-13T08:20:04;4.60;99.90
72936;DHT22;61085;48.804;9.228;2022-11-13T08:22:30;4.70;99.90
72936;DHT22;61085;48.804;9.228;2022-11-13T08:24:56;4.80;99.90
72936;DHT22;61085;48.804;9.228;2022-11-13T08:27:22;4.80;99.90
72936;DHT22;61085;48.804;9.228;2022-11-13T08:29:49;4.90;99.90
72936;DHT22;61085;48.804;9.228;2022-11-13T08:32:16;5.00;99.90
72936;DHT22;61085;48.804;9.228;2022-11-13T08:34:43;5.00;99.90
72936;DHT22;61085;48.804;9.228;2022-11-13T08:37:09;5.00;99.90
72936;DHT22;61085;48.804;9.228;2022-11-13T08:39:34;5.00;99.90
72936;DHT22;61085;48.804;9.228;2022-11-13T08:42:03;5.10;99.90
72936;DHT22;61085;48.804;9.228;2022-11-13T08:44:30;5.20;99.90
72936;DHT22;61085;48.804;9.228;2022-11-13T08:46:55;5.20;99.90
72936;DHT22;61085;48.804;9.228;2022-11-13T08:49:21;5.10;99.90
72936;DHT22;61085;48.804;9.228;2022-11-13T08:51:47;4.80;99.90
72936;DHT22;61085;48.804;9.228;2022-11-13T08:54:12;4.90;99.90
72936;DHT22;61085;48.804;9.228;2022-11-13T08:56:38;5.20;99.90
72936;DHT22;61085;48.804;9.228;2022-11-13T08:59:03;5.20;99.90
72936;DHT22;61085;48.804;9.228;2022-11-13T09:01:29;5.20;99.90
72936;DHT22;61085;48.804;9.228;2022-11-13T09:03:54;4.90;99.90
72936;DHT22;61085;48.804;9.228;2022-11-13T09:06:20;5.00;99.90
72936;DHT22;61085;48.804;9.228;2022-11-13T09:08:45;5.00;99.90
72936;DHT22;61085;48.804;9.228;2022-11-13T09:11:11;5.20;99.90
72936;DHT22;61085;48.804;9.228;2022-11-13T09:13:37;5.30;99.90
72936;DHT22;61085;48.804;9.228;2022-11-13T09:16:03;5.40;99.90
72936;DHT22;61085;48.804;9.228;2022-11-13T09:18:28;5.50;99.90
72936;DHT22;61085;48.804;9.228;2022-11-13T09:20:58;5.30;99.90
72936;DHT22;61085;48.804;9.228;2022-11-13T09:23:25;5.30;99.90
72936;DHT22;61085;48.804;9.228;2022-11-13T09:25:50;5.50;99.90
72936;DHT22;61085;48.804;9.228;2022-11-13T09:28:16;5.50;99.90
72936;DHT22;61085;48.804;9.228;2022-11-13T09:30:42;5.60;99.90
72936;DHT22;61085;48.804;9.228;2022-11-13T09:33:09;5.70;99.90
72936;DHT22;61085;48.804;9.228;2022-11-13T09:35:40;5.60;99.90
72936;DHT22;61085;48.804;9.228;2022-11-13T09:38:11;5.70;99.90
72936;DHT22;61085;48.804;9.228;2022-11-13T09:40:53;5.90;99.90
72936;DHT22;61085;48.804;9.228;2022-11-13T09:45:51;6.00;99.90
72936;DHT22;61085;48.804;9.228;2022-11-13T09:48:34;6.10;99.90
72936;DHT22;61085;48.804;9.228;2022-11-13T09:51:06;6.10;99.90
72936;DHT22;61085;48.804;9.228;2022-11-13T09:53:36;6.00;99.90
72936;DHT22;61085;48.804;9.228;2022-11-13T09:56:18;5.80;99.90
72936;DHT22;61085;48.804;9.228;2022-11-13T10:01:49;5.80;99.90
72936;DHT22;61085;48.804;9.228;2022-11-13T10:04:23;6.00;99.90
72936;DHT22;61085;48.804;9.228;2022-11-13T10:12:28;5.90;99.90
72936;DHT22;61085;48.804;9.228;2022-11-13T10:14:56;6.00;99.90
72936;DHT22;61085;48.804;9.228;2022-11-13T10:17:52;6.20;99.90
72936;DHT22;61085;48.804;9.228;2022-11-13T10:22:58;6.30;99.90
72936;DHT22;61085;48.804;9.228;2022-11-13T10:25:32;6.10;99.90
72936;DHT22;61085;48.804;9.228;2022-11-13T10:28:01;6.40;99.90
72936;DHT22;61085;48.804;9.228;2022-11-13T10:30:27;6.80;99.90
72936;DHT22;61085;48.804;9.228;2022-11-13T10:33:00;7.20;99.90
72936;DHT22;61085;48.804;9.228;2022-11-13T10:41:24;7.50;96.50
72936;DHT22;61085;48.804;9.228;2022-11-13T10:43:57;7.40;98.10
72936;DHT22;61085;48.804;9.228;2022-11-13T10:46:25;7.70;98.20
72936;DHT22;61085;48.804;9.228;2022-11-13T10:48:51;7.90;96.70
72936;DHT22;61085;48.804;9.228;2022-11-13T10:53:49;8.30;95.70
72936;DHT22;61085;48.804;9.228;2022-11-13T10:56:28;8.20;94.90
72936;DHT22;61085;48.804;9.228;2022-11-13T10:59:17;8.10;95.10
72936;DHT22;61085;48.804;9.228;2022-11-13T11:01:45;7.80;96.10
72936;DHT22;61085;48.804;9.228;2022-11-13T11:04:18;7.80;96.20
72936;DHT22;61085;48.804;9.228;2022-11-13T11:06:45;7.80;96.30
72936;DHT22;61085;48.804;9.228;2022-11-13T11:09:21;7.80;98.30
72936;DHT22;61085;48.804;9.228;2022-11-13T11:11:58;7.70;98.10
72936;DHT22;61085;48.804;9.228;2022-11-13T11:17:10;8.00;98.00
72936;DHT22;61085;48.804;9.228;2022-11-13T11:19:38;8.10;98.20
72936;DHT22;61085;48.804;9.228;2022-11-13T11:22:32;8.30;97.00
72936;DHT22;61085;48.804;9.228;2022-11-13T11:25:19;8.30;97.10
72936;DHT22;61085;48.804;9.228;2022-11-13T11:28:25;8.00;97.30
72936;DHT22;61085;48.804;9.228;2022-11-13T11:33:55;8.10;97.90
72936;DHT22;61085;48.804;9.228;2022-11-13T11:36:29;8.00;97.70
72936;DHT22;61085;48.804;9.228;2022-11-13T11:39:11;8.10;97.80
72936;DHT22;61085;48.804;9.228;2022-11-13T11:41:48;8.10;97.60
72936;DHT22;61085;48.804;9.228;2022-11-13T11:46:47;8.20;97.80
72936;DHT22;61085;48.804;9.228;2022-11-13T11:49:13;8.20;97.80
72936;DHT22;61085;48.804;9.228;2022-11-13T11:54:40;8.60;97.50
72936;DHT22;61085;48.804;9.228;2022-11-13T11:59:58;8.80;96.00
72936;DHT22;61085;48.804;9.228;2022-11-13T12:12:59;8.90;95.20
72936;DHT22;61085;48.804;9.228;2022-11-13T12:26:59;9.30;94.20
72936;DHT22;61085;48.804;9.228;2022-11-13T12:29:56;9.30;93.70
72936;DHT22;61085;48.804;9.228;2022-11-13T12:32:47;9.30;94.20
72936;DHT22;61085;48.804;9.228;2022-11-13T12:35:18;9.30;94.30
72936;DHT22;61085;48.804;9.228;2022-11-13T12:40:37;9.50;93.90
72936;DHT22;61085;48.804;9.228;2022-11-13T12:45:55;9.50;94.40
72936;DHT22;61085;48.804;9.228;2022-11-13T12:48:35;9.90;93.70
72936;DHT22;61085;48.804;9.228;2022-11-13T12:51:09;9.90;93.80
72936;DHT22;61085;48.804;9.228;2022-11-13T12:53:50;10.00;93.60
72936;DHT22;61085;48.804;9.228;2022-11-13T12:56:30;10.10;93.30
72936;DHT22;61085;48.804;9.228;2022-11-13T12:59:00;10.10;93.00
72936;DHT22;61085;48.804;9.228;2022-11-13T13:01:30;10.30;92.50
72936;DHT22;61085;48.804;9.228;2022-11-13T13:05:00;10.30;92.20
72936;DHT22;61085;48.804;9.228;2022-11-13T13:07:05;10.20;92.60
72936;DHT22;61085;48.804;9.228;2022-11-13T13:12:48;10.10;92.90
72936;DHT22;61085;48.804;9.228;2022-11-13T13:15:26;10.20;93.50
72936;DHT22;61085;48.804;9.228;2022-11-13T13:20:43;10.40;92.50
72936;DHT22;61085;48.804;9.228;2022-11-13T13:23:11;10.40;92.30
72936;DHT22;61085;48.804;9.228;2022-11-13T13:25:38;10.40;92.10
72936;DHT22;61085;48.804;9.228;2022-11-13T13:30:50;10.40;92.90
72936;DHT22;61085;48.804;9.228;2022-11-13T13:33:34;10.50;92.50
72936;DHT22;61085;48.804;9.228;2022-11-13T13:49:51;10.50;92.40
72936;DHT22;61085;48.804;9.228;2022-11-13T13:52:25;10.60;92.30
72936;DHT22;61085;48.804;9.228;2022-11-13T13:54:52;10.50;92.20
72936;DHT22;61085;48.804;9.228;2022-11-13T13:57:18;10.50;92.40
72936;DHT22;61085;48.804;9.228;2022-11-13T13:59:44;10.60;92.70
72936;DHT22;61085;48.804;9.228;2022-11-13T14:02:18;10.60;92.60
72936;DHT22;61085;48.804;9.228;2022-11-13T14:04:47;10.70;92.60
72936;DHT22;61085;48.804;9.228;2022-11-13T14:07:25;10.70;92.50
72936;DHT22;61085;48.804;9.228;2022-11-13T14:10:24;10.70;92.50
72936;DHT22;61085;48.804;9.228;2022-11-13T14:12:50;10.70;92.80
72936;DHT22;61085;48.804;9.228;2022-11-13T14:15:30;10.60;92.60
72936;DHT22;61085;48.804;9.228;2022-11-13T14:23:36;10.70;92.00
72936;DHT22;61085;48.804;9.228;2022-11-13T14:26:04;10.70;91.80
72936;DHT22;61085;48.804;9.228;2022-11-13T14:28:43;10.70;92.20
72936;DHT22;61085;48.804;9.228;2022-11-13T14:31:11;10.70;92.20
72936;DHT22;61085;48.804;9.228;2022-11-13T14:33:45;10.70;92.00
72936;DHT22;61085;48.804;9.228;2022-11-13T14:36:13;10.60;91.90
72936;DHT22;61085;48.804;9.228;2022-11-13T14:38:45;10.70;92.40
72936;DHT22;61085;48.804;9.228;2022-11-13T14:41:36;10.70;92.00
72936;DHT22;61085;48.804;9.228;2022-11-13T14:44:03;10.60;92.00
72936;DHT22;61085;48.804;9.228;2022-11-13T14:46:36;10.60;92.30
72936;DHT22;61085;48.804;9.228;2022-11-13T14:49:03;10.60;92.60
72936;DHT22;61085;48.804;9.228;2022-11-13T14:51:33;10.60;92.80
72936;DHT22;61085;48.804;9.228;2022-11-13T14:54:03;10.60;92.70
72936;DHT22;61085;48.804;9.228;2022-11-13T14:56:33;10.60;92.50
72936;DHT22;61085;48.804;9.228;2022-11-13T14:59:07;10.50;92.90
72936;DHT22;61085;48.804;9.228;2022-11-13T15:01:33;10.50;93.20
72936;DHT22;61085;48.804;9.228;2022-11-13T15:03:59;10.50;93.30
72936;DHT22;61085;48.804;9.228;2022-11-13T15:06:26;10.40;93.50
72936;DHT22;61085;48.804;9.228;2022-11-13T15:08:58;10.40;93.80
72936;DHT22;61085;48.804;9.228;2022-11-13T15:11:25;10.40;94.20
72936;DHT22;61085;48.804;9.228;2022-11-13T15:13:51;10.30;94.10
72936;DHT22;61085;48.804;9.228;2022-11-13T15:16:22;10.30;94.30
72936;DHT22;61085;48.804;9.228;2022-11-13T15:18:57;10.20;94.60
72936;DHT22;61085;48.804;9.228;2022-11-13T15:21:23;10.20;94.90
72936;DHT22;61085;48.804;9.228;2022-11-13T15:23:49;10.30;94.70
72936;DHT22;61085;48.804;9.228;2022-11-13T15:26:14;10.20;94.70
72936;DHT22;61085;48.804;9.228;2022-11-13T15:28:40;10.10;95.00
72936;DHT22;61085;48.804;9.228;2022-11-13T15:31:23;10.10;95.30
72936;DHT22;61085;48.804;9.228;2022-11-13T15:33:49;10.10;95.30
72936;DHT22;61085;48.804;9.228;2022-11-13T15:36:15;10.00;95.40
72936;DHT22;61085;48.804;9.228;2022-11-13T15:38:40;9.90;95.60
72936;DHT22;61085;48.804;9.228;2022-11-13T15:41:10;9.80;95.90
72936;DHT22;61085;48.804;9.228;2022-11-13T15:43:36;9.80;96.20
72936;DHT22;61085;48.804;9.228;2022-11-13T15:46:02;9.70;96.60
72936;DHT22;61085;48.804;9.228;2022-11-13T15:48:28;9.70;97.40
72936;DHT22;61085;48.804;9.228;2022-11-13T15:50:53;9.60;97.70
72936;DHT22;61085;48.804;9.228;2022-11-13T15:53:19;9.60;97.70
72936;DHT22;61085;48.804;9.228;2022-11-13T15:55:44;9.50;97.80
72936;DHT22;61085;48.804;9.228;2022-11-13T15:58:14;9.40;97.90
72936;DHT22;61085;48.804;9.228;2022-11-13T16:00:42;9.40;98.10
72936;DHT22;61085;48.804;9.228;2022-11-13T16:03:10;9.30;98.40
72936;DHT22;61085;48.804;9.228;2022-11-13T16:05:36;9.40;98.70
72936;DHT22;61085;48.804;9.228;2022-11-13T16:08:12;9.50;98.60
72936;DHT22;61085;48.804;9.228;2022-11-13T16:10:39;9.50;98.30
72936;DHT22;61085;48.804;9.228;2022-11-13T16:13:05;9.40;98.50
72936;DHT22;61085;48.804;9.228;2022-11-13T16:15:30;9.30;98.60
72936;DHT22;61085;48.804;9.228;2022-11-13T16:17:57;9.20;99.20
72936;DHT22;61085;48.804;9.228;2022-11-13T16:20:23;9.10;99.60
72936;DHT22;61085;48.804;9.228;2022-11-13T16:22:49;9.00;99.80
72936;DHT22;61085;48.804;9.228;2022-11-13T16:25:17;9.00;99.90
72936;DHT22;61085;48.804;9.228;2022-11-13T16:27:43;8.80;99.90
72936;DHT22;61085;48.804;9.228;2022-11-13T16:30:20;8.90;99.90
72936;DHT22;61085;48.804;9.228;2022-11-13T16:32:46;8.80;99.90
72936;DHT22;61085;48.804;9.228;2022-11-13T16:35:17;8.80;99.90
72936;DHT22;61085;48.804;9.228;2022-11-13T16:37:43;8.70;99.90
72936;DHT22;61085;48.804;9.228;2022-11-13T16:40:16;8.70;99.90
72936;DHT22;61085;48.804;9.228;2022-11-13T16:42:42;8.60;99.90
72936;DHT22;61085;48.804;9.228;2022-11-13T16:45:08;8.50;99.90
72936;DHT22;61085;48.804;9.228;2022-11-13T16:47:34;8.50;99.90
72936;DHT22;61085;48.804;9.228;2022-11-13T16:50:01;8.40;99.90
72936;DHT22;61085;48.804;9.228;2022-11-13T16:52:26;8.30;99.90
72936;DHT22;61085;48.804;9.228;2022-11-13T16:54:52;8.30;99.90
72936;DHT22;61085;48.804;9.228;2022-11-13T16:57:18;8.30;99.90
72936;DHT22;61085;48.804;9.228;2022-11-13T16:59:44;8.20;99.90
72936;DHT22;61085;48.804;9.228;2022-11-13T17:02:15;8.20;99.90
72936;DHT22;61085;48.804;9.228;2022-11-13T17:04:42;8.20;99.90
72936;DHT22;61085;48.804;9.228;2022-11-13T17:07:12;8.10;99.90
72936;DHT22;61085;48.804;9.228;2022-11-13T17:09:44;8.00;99.90
72936;DHT22;61085;48.804;9.228;2022-11-13T17:12:10;8.10;99.90
72936;DHT22;61085;48.804;9.228;2022-11-13T17:14:36;8.10;99.90
72936;DHT22;61085;48.804;9.228;2022-11-13T17:17:03;7.90;99.90
72936;DHT22;61085;48.804;9.228;2022-11-13T17:19:29;7.90;99.90
72936;DHT22;61085;48.804;9.228;2022-11-13T17:21:55;7.90;99.90
72936;DHT22;61085;48.804;9.228;2022-11-13T17:24:20;7.80;99.90